Terminal Aerodrome Forecast
Issued by NWS Wichita, KS

Home | Current Version | Previous Version | Graphics & Text | Print | Product List | Glossary On
Versions: 1 2 3 4 5 6 7 8 9 10 11 12 13 14 15 16 17 18
000
FTUS43 KICT 151700
TAFICT
TAF
KICT 151735Z 1518/1618 20013G24KT P6SM SKC
     FM160300 17016G24KT P6SM SCT250
     FM161500 19026G35KT P6SM FEW250=

USA.gov is the U.S. government's official web portal to all federal, state and local government web resources and services.